Bissett, Canada
Current Conditions -  °F | °C
As of 9:00 PM on Friday 21 Nov 2014 (Local Time) from CYRL Reporting Station
Blowing Snow Blowing Snow  
Wind Chill: 17°   Ceiling: 3000
Heat Index: 25°   Visibility: 10mi
Dew Point: 21°   Wind: 7mph
Humidity: 86%   Direction: 210°SSW
Pressure: 29.41"   Gusts: NA
Location:  51.02°N, 95.67°W
Report Text: CYRL 220300Z 21006KT 10SM BLSN FEW010 OVC030 M04/M06 A2941 RMK SC2SC6 BR LAST STFD OBS/ NEXT 22 1000UTC SLP984
Loading
Personal Weather Stations






























Interactive Weather Map New forecast layout! Learn more

10-Day Weather Forecast

Advertisements
Track Severe Weather on mobile